Terminal Aerodrome Forecast
Issued by NWS

Home | Current Version | Previous Version | Text Only | Print | Product List | Glossary On
Versions: 1 2 3 4 5 6 7 8 9 10 11 12 13 14 15 16
312
FTUS44 KLIX 191146
TAFMCB
TAF
KMCB 191146Z 1912/2012 00000KT P6SM SKC
     FM191700 31005KT P6SM VCTS BKN040CB
     FM192100 VRB03KT P6SM BKN040 PROB30 1921/1924 4SM -TSRA
      OVC040CB
     FM200000 VRB03KT P6SM SCT150
     FM201000 00000KT P6SM FEW150=

USA.gov is the U.S. government's official web portal to all federal, state and local government web resources and services.